Bookmark and Share
Track history (hours):
 

Twizzle

Last reported at 2014-Apr-19 12:08 UTC. Time now 2014-Apr-19 14:39 UTC.
Position N 37°18' W 000°38'.

Length 58 m; draft 3.8 m.

Type: Sailing vessel. MMSI: 235079813.

NotesDate/timePositionNaut miles runAvg speedWind from/ knotsBaromVisibWave heightAir tempDewpointWater temp
2014-Apr-19 12:08N 37°18' W 000°38'4011.0
2014-Apr-19 08:32N 36°54' W 001°18'18511.6
2014-Apr-18 16:32N 36°07' W 005°01'1212.6
2014-Apr-18 15:33N 36°06' W 005°16'6 6.1
2014-Apr-18 14:33N 36°09' W 005°23'1111.3
2014-Apr-18 13:33N 35°58' W 005°27'  
2014-Apr-15 14:20N 37°21' W 023°21'9 4.9
2014-Apr-15 12:34N 37°22' W 023°31'1111.1
2014-Apr-15 11:34N 37°24' W 023°45'1111.1
2014-Apr-15 10:34N 37°25' W 023°59'1111.3
2014-Apr-15 09:34N 37°26' W 024°13'1111.2
2014-Apr-15 08:34N 37°28' W 024°27'1111.2
2014-Apr-15 07:34N 37°29' W 024°41'1110.8
2014-Apr-15 06:34N 37°31' W 024°55'1110.9
2014-Apr-15 05:34N 37°32' W 025°09'2211.0
2014-Apr-15 03:34N 37°35' W 025°36'1111.1
2014-Apr-15 02:34N 37°37' W 025°50'1110.9
2014-Apr-15 01:34N 37°41' W 026°03'1110.9
2014-Apr-15 00:34N 37°45' W 026°16'1111.3
2014-Apr-14 23:34N 37°49' W 026°29'1111.3
2014-Apr-14 22:34N 37°53' W 026°42'1111.3
2014-Apr-14 21:34N 37°57' W 026°56'1111.1
2014-Apr-14 20:34N 38°01' W 027°09'1111.2
2014-Apr-14 19:34N 38°04' W 027°22'1111.1
2014-Apr-14 18:34N 38°08' W 027°35'1110.8
2014-Apr-14 17:34N 38°12' W 027°48'1111.3
2014-Apr-14 16:33N 38°16' W 028°02'1111.3
2014-Apr-14 15:34N 38°20' W 028°15'1111.3
2014-Apr-14 14:33N 38°24' W 028°29'1010.1
2014-Apr-14 13:33N 38°32' W 028°37'0 0.0
2014-Apr-14 11:32N 38°32' W 028°38'0 0.0
2014-Apr-14 10:33N 38°32' W 028°38'0 0.0
2014-Apr-14 09:32N 38°32' W 028°38'0 0.0
2014-Apr-14 07:29N 38°32' W 028°38'0 0.0
2014-Apr-14 05:32N 38°32' W 028°38'0 0.0
2014-Apr-13 22:29N 38°32' W 028°38'0 0.0
2014-Apr-13 21:32N 38°32' W 028°38'0 0.0
2014-Apr-13 20:32N 38°32' W 028°38'5 4.9
2014-Apr-13 19:33N 38°30' W 028°43'1212.2
2014-Apr-13 18:33N 38°29' W 028°59'1211.8
2014-Apr-13 17:33N 38°28' W 029°14'1211.9
2014-Apr-13 16:33N 38°26' W 029°29'1211.6
2014-Apr-13 15:33N 38°25' W 029°44'1111.4
2014-Apr-13 14:33N 38°24' W 029°58'1111.4
2014-Apr-13 13:33N 38°23' W 030°12'1111.4
2014-Apr-13 12:33N 38°21' W 030°27'1111.3
2014-Apr-13 11:33N 38°20' W 030°41'  

Dump ship's entire track history

sailing weather and tide predictions

Twizzle — 2DKS5 — position and weather